createdAt,value
2023-08-16T00:01:14.778Z,19.10
2023-08-16T00:03:42.690Z,19.10
2023-08-16T00:06:13.601Z,19.10
2023-08-16T00:08:42.032Z,19.00
2023-08-16T00:11:10.549Z,19.00
2023-08-16T00:13:42.242Z,19.00
2023-08-16T00:16:08.937Z,18.90
2023-08-16T00:18:36.479Z,18.90
2023-08-16T00:21:03.167Z,18.80
2023-08-16T00:23:30.562Z,18.80
2023-08-16T00:25:57.797Z,18.70
2023-08-16T00:28:25.453Z,18.70
2023-08-16T00:30:54.823Z,18.70
2023-08-16T00:33:22.914Z,18.70
2023-08-16T00:35:52.200Z,18.60
2023-08-16T00:38:20.227Z,18.60
2023-08-16T00:40:50.751Z,18.60
2023-08-16T00:43:19.142Z,18.50
2023-08-16T00:45:49.867Z,18.50
2023-08-16T00:48:18.786Z,18.50
2023-08-16T00:50:46.735Z,18.50
2023-08-16T00:53:18.334Z,18.50
2023-08-16T00:55:45.260Z,18.50
2023-08-16T00:58:12.802Z,18.40
2023-08-16T01:00:40.004Z,18.40
2023-08-16T01:03:07.560Z,18.40
2023-08-16T01:05:34.458Z,18.40
2023-08-16T01:08:03.597Z,18.40
2023-08-16T01:10:42.232Z,18.40
2023-08-16T01:13:14.921Z,18.40
2023-08-16T01:15:45.613Z,18.40
2023-08-16T01:18:14.452Z,18.40
2023-08-16T01:20:42.454Z,18.50
2023-08-16T01:23:23.044Z,18.50
2023-08-16T01:26:06.974Z,18.60
2023-08-16T01:28:36.497Z,18.60
2023-08-16T01:31:05.084Z,18.60
2023-08-16T01:33:32.946Z,18.60
2023-08-16T01:35:59.831Z,18.60
2023-08-16T01:38:27.830Z,18.60
2023-08-16T01:41:11.220Z,18.60
2023-08-16T01:43:39.602Z,18.60
2023-08-16T01:46:09.268Z,18.50
2023-08-16T01:48:39.476Z,18.50
2023-08-16T01:51:07.285Z,18.40
2023-08-16T01:53:35.470Z,18.40
2023-08-16T01:56:02.298Z,18.30
2023-08-16T01:58:29.699Z,18.30
2023-08-16T02:00:57.193Z,18.30
2023-08-16T02:03:24.076Z,18.40
2023-08-16T02:05:51.570Z,18.40
2023-08-16T02:08:18.632Z,18.40
2023-08-16T02:10:46.030Z,18.40
2023-08-16T02:13:13.058Z,18.40
2023-08-16T02:15:40.951Z,18.50
2023-08-16T02:18:12.020Z,18.50
2023-08-16T02:20:41.191Z,18.40
2023-08-16T02:23:09.292Z,18.40
2023-08-16T02:25:36.649Z,18.40
2023-08-16T02:28:03.736Z,18.40
2023-08-16T02:30:31.310Z,18.40
2023-08-16T02:32:58.330Z,18.40
2023-08-16T02:35:26.913Z,18.30
2023-08-16T02:37:53.568Z,18.30
2023-08-16T02:40:20.980Z,18.30
2023-08-16T02:42:50.240Z,18.30
2023-08-16T02:45:17.966Z,18.30
2023-08-16T02:47:47.128Z,18.20
2023-08-16T02:50:14.614Z,18.20
2023-08-16T02:52:41.393Z,18.20
2023-08-16T02:55:09.437Z,18.20
2023-08-16T02:57:36.126Z,18.10
2023-08-16T03:00:04.332Z,18.10
2023-08-16T03:02:33.770Z,18.20
2023-08-16T03:05:01.209Z,18.20
2023-08-16T03:07:27.890Z,18.20
2023-08-16T03:09:55.262Z,18.20
2023-08-16T03:12:22.018Z,18.30
2023-08-16T03:14:49.613Z,18.30
2023-08-16T03:17:16.499Z,18.30
2023-08-16T03:19:43.839Z,18.30
2023-08-16T03:22:10.949Z,18.30
2023-08-16T03:24:38.366Z,18.30
2023-08-16T03:27:05.907Z,18.40
2023-08-16T03:29:33.432Z,18.40
2023-08-16T03:32:01.075Z,18.40
2023-08-16T03:34:31.615Z,18.30
2023-08-16T03:36:58.832Z,18.30
2023-08-16T03:39:26.299Z,18.30
2023-08-16T03:41:53.618Z,18.30
2023-08-16T03:44:21.006Z,18.30
2023-08-16T03:46:47.767Z,18.20
2023-08-16T03:49:15.080Z,18.30
2023-08-16T03:51:41.794Z,18.20
2023-08-16T03:54:09.266Z,18.20
2023-08-16T03:56:36.011Z,18.20
2023-08-16T03:59:03.492Z,18.10
2023-08-16T04:01:30.433Z,18.10
2023-08-16T04:03:57.504Z,18.10
2023-08-16T04:06:24.980Z,18.10
2023-08-16T04:08:51.844Z,18.20
2023-08-16T04:11:19.176Z,18.20
2023-08-16T04:13:46.237Z,18.20
2023-08-16T04:16:13.796Z,18.30
2023-08-16T04:18:40.855Z,18.30
2023-08-16T04:21:07.570Z,18.50
2023-08-16T04:23:34.620Z,18.50
2023-08-16T04:26:03.035Z,18.50
2023-08-16T04:28:32.134Z,18.50
2023-08-16T04:31:01.293Z,18.50
2023-08-16T04:33:29.610Z,18.60
2023-08-16T04:35:57.744Z,18.60
2023-08-16T04:38:24.770Z,18.60
2023-08-16T04:40:53.671Z,18.60
2023-08-16T04:43:20.942Z,18.60
2023-08-16T04:45:49.134Z,18.60
2023-08-16T04:48:16.401Z,18.60
2023-08-16T04:50:43.887Z,18.70
2023-08-16T04:53:11.835Z,18.70
2023-08-16T04:55:40.313Z,18.60
2023-08-16T04:58:07.306Z,18.60
2023-08-16T05:00:36.925Z,18.60
2023-08-16T05:03:06.209Z,18.60
2023-08-16T05:05:35.415Z,18.60
2023-08-16T05:08:02.230Z,18.60
2023-08-16T05:10:29.669Z,18.50
2023-08-16T05:12:56.359Z,18.50
2023-08-16T05:15:24.419Z,18.50
2023-08-16T05:17:51.438Z,18.50
2023-08-16T05:20:20.132Z,18.50
2023-08-16T05:22:46.807Z,18.50
2023-08-16T05:25:14.168Z,18.50
2023-08-16T05:27:40.999Z,18.50
2023-08-16T05:30:08.792Z,18.50
2023-08-16T05:32:35.631Z,18.50
2023-08-16T05:35:02.784Z,18.60
2023-08-16T05:37:30.795Z,18.50
2023-08-16T05:39:57.665Z,18.50
2023-08-16T05:42:27.610Z,18.60
2023-08-16T05:44:54.261Z,18.60
2023-08-16T05:47:21.714Z,18.70
2023-08-16T05:49:48.585Z,18.70
2023-08-16T05:52:16.039Z,18.70
2023-08-16T05:54:42.958Z,18.80
2023-08-16T05:57:10.497Z,18.90
2023-08-16T05:59:37.168Z,18.90
2023-08-16T06:02:04.653Z,19.00
2023-08-16T06:04:31.493Z,19.10
2023-08-16T06:06:58.836Z,19.20
2023-08-16T06:09:25.632Z,19.30
2023-08-16T06:11:52.966Z,19.40
2023-08-16T06:14:19.724Z,19.40
2023-08-16T06:16:47.395Z,19.50
2023-08-16T06:19:15.698Z,19.60
2023-08-16T06:21:42.785Z,19.70
2023-08-16T06:24:09.693Z,20.10
2023-08-16T06:26:37.039Z,22.30
2023-08-16T06:29:06.875Z,23.80
2023-08-16T06:31:37.491Z,24.70
2023-08-16T06:34:04.685Z,24.50
2023-08-16T06:36:32.062Z,24.00
2023-08-16T06:38:59.108Z,23.70
2023-08-16T06:41:26.692Z,23.30
2023-08-16T06:43:53.382Z,23.40
2023-08-16T06:46:20.964Z,23.70
2023-08-16T06:48:48.850Z,24.90
2023-08-16T06:51:16.544Z,25.40
2023-08-16T06:53:45.893Z,27.00
2023-08-16T06:56:13.546Z,27.70
2023-08-16T06:58:42.288Z,27.70
2023-08-16T07:01:10.290Z,27.00
2023-08-16T07:03:37.500Z,27.80
2023-08-16T07:06:04.710Z,26.10
2023-08-16T07:08:32.133Z,25.00
2023-08-16T07:10:58.797Z,24.10
2023-08-16T07:13:26.088Z,24.20
2023-08-16T07:15:52.765Z,24.70
2023-08-16T07:18:20.052Z,26.70
2023-08-16T07:20:46.729Z,27.60
2023-08-16T07:23:14.016Z,27.70
2023-08-16T07:25:40.669Z,29.20
2023-08-16T07:28:08.724Z,29.60
2023-08-16T07:30:39.001Z,28.60
2023-08-16T07:33:06.827Z,29.30
2023-08-16T07:35:33.939Z,27.70
2023-08-16T07:38:03.128Z,26.30
2023-08-16T07:40:30.073Z,27.60
2023-08-16T07:42:57.428Z,27.40
2023-08-16T07:45:24.166Z,26.80
2023-08-16T07:47:51.765Z,26.50
2023-08-16T07:50:18.422Z,26.60
2023-08-16T07:52:46.827Z,27.40
2023-08-16T07:55:13.509Z,27.80
2023-08-16T07:57:40.944Z,27.40
2023-08-16T08:00:12.941Z,26.40
2023-08-16T08:02:55.339Z,25.30
2023-08-16T08:05:26.783Z,24.50
2023-08-16T08:07:55.311Z,23.80
2023-08-16T08:10:22.129Z,23.40
2023-08-16T08:12:49.347Z,23.00
2023-08-16T08:15:16.758Z,22.90
2023-08-16T08:17:43.438Z,22.70
2023-08-16T08:20:11.715Z,22.70
2023-08-16T08:22:38.415Z,22.60
2023-08-16T08:25:06.308Z,22.70
2023-08-16T08:27:32.966Z,22.70
2023-08-16T08:30:00.550Z,22.70
2023-08-16T08:32:27.455Z,22.90
2023-08-16T08:34:54.749Z,24.00
2023-08-16T08:37:21.573Z,25.00
2023-08-16T08:39:49.005Z,26.20
2023-08-16T08:42:16.288Z,26.50
2023-08-16T08:44:44.900Z,26.50
2023-08-16T08:47:17.184Z,26.80
2023-08-16T08:49:44.542Z,26.70
2023-08-16T08:52:12.629Z,26.70
2023-08-16T08:54:40.125Z,26.50
2023-08-16T08:57:07.357Z,26.80
2023-08-16T08:59:35.773Z,27.00
2023-08-16T09:02:03.093Z,27.30
2023-08-16T09:04:32.140Z,27.20
2023-08-16T09:07:01.005Z,26.70
2023-08-16T09:09:28.806Z,26.10
2023-08-16T09:11:56.292Z,25.30
2023-08-16T09:14:23.704Z,24.60
2023-08-16T09:16:50.404Z,24.30
2023-08-16T09:19:17.800Z,24.20
2023-08-16T09:21:45.214Z,24.30
2023-08-16T09:24:11.917Z,24.30
2023-08-16T09:26:39.523Z,24.20
2023-08-16T09:29:06.282Z,24.10
2023-08-16T09:31:42.790Z,24.10
2023-08-16T09:34:10.504Z,24.00
2023-08-16T09:36:38.036Z,24.00
2023-08-16T09:39:10.423Z,23.90
2023-08-16T09:41:48.588Z,23.70
2023-08-16T09:44:15.272Z,23.80
2023-08-16T09:49:17.049Z,23.80
2023-08-16T09:54:18.577Z,23.70
2023-08-16T10:04:20.384Z,24.40
2023-08-16T10:09:20.433Z,24.50
2023-08-16T10:11:48.874Z,24.60
2023-08-16T10:14:16.169Z,24.60
2023-08-16T10:16:48.224Z,24.60
2023-08-16T10:19:18.179Z,24.40
2023-08-16T10:21:49.458Z,24.30
2023-08-16T10:24:32.227Z,24.20
2023-08-16T10:27:04.885Z,24.20
2023-08-16T10:29:42.701Z,24.10
2023-08-16T10:32:15.023Z,24.10
2023-08-16T10:34:42.020Z,24.10
2023-08-16T10:37:09.953Z,24.00
2023-08-16T10:39:36.627Z,23.90
2023-08-16T10:42:07.540Z,23.70
2023-08-16T10:44:34.716Z,23.60
2023-08-16T10:47:02.495Z,23.50
2023-08-16T10:49:38.836Z,23.40
2023-08-16T10:52:06.349Z,23.20
2023-08-16T10:54:35.713Z,23.00
2023-08-16T10:57:04.375Z,23.00
2023-08-16T10:59:39.050Z,22.70
2023-08-16T11:02:12.779Z,22.70
2023-08-16T11:04:41.033Z,22.60
2023-08-16T11:07:19.635Z,22.40
2023-08-16T11:09:46.515Z,22.30
2023-08-16T11:12:16.012Z,22.20
2023-08-16T11:14:45.502Z,22.10
2023-08-16T11:17:16.665Z,22.10
2023-08-16T11:19:43.474Z,22.10
2023-08-16T11:22:13.137Z,22.10
2023-08-16T11:24:39.946Z,22.00
2023-08-16T11:27:08.053Z,22.00
2023-08-16T11:29:35.280Z,22.10
2023-08-16T11:32:02.748Z,22.00
2023-08-16T11:34:32.792Z,22.00
2023-08-16T11:37:00.052Z,22.00
2023-08-16T11:39:28.800Z,22.20
2023-08-16T11:41:55.577Z,22.30
2023-08-16T11:44:25.647Z,22.50
2023-08-16T11:46:52.906Z,22.70
2023-08-16T11:49:23.226Z,22.80
2023-08-16T11:51:50.802Z,23.00
2023-08-16T11:54:23.236Z,23.20
2023-08-16T11:56:53.553Z,23.40
2023-08-16T11:59:32.841Z,23.60
2023-08-16T12:02:10.620Z,23.80
2023-08-16T12:04:43.750Z,23.90
2023-08-16T12:07:11.828Z,23.80
2023-08-16T12:09:42.376Z,23.80
2023-08-16T12:12:11.155Z,23.80
2023-08-16T12:14:38.793Z,23.90
2023-08-16T12:17:05.996Z,24.00
2023-08-16T12:19:33.741Z,24.10
2023-08-16T12:22:00.441Z,24.30
2023-08-16T12:24:28.991Z,24.10
2023-08-16T12:26:55.759Z,24.10
2023-08-16T12:29:23.208Z,24.10
2023-08-16T12:31:50.194Z,24.30
2023-08-16T12:34:17.720Z,24.50
2023-08-16T12:36:44.449Z,24.40
2023-08-16T12:39:11.748Z,24.20
2023-08-16T12:41:38.482Z,24.10
2023-08-16T12:44:06.087Z,24.20
2023-08-16T12:46:33.074Z,24.10
2023-08-16T12:49:00.606Z,24.00
2023-08-16T12:51:27.523Z,23.90
2023-08-16T12:53:54.576Z,24.00
2023-08-16T12:56:22.195Z,24.00
2023-08-16T13:01:20.351Z,24.20
2023-08-16T13:06:30.506Z,24.00
2023-08-16T13:11:34.763Z,23.80
2023-08-16T13:14:10.563Z,23.80
2023-08-16T13:19:24.255Z,23.80
2023-08-16T13:21:54.742Z,23.80
2023-08-16T13:29:25.840Z,23.80
2023-08-16T13:32:02.425Z,23.80
2023-08-16T13:37:01.989Z,23.80
2023-08-16T13:39:42.304Z,23.70
2023-08-16T13:42:17.195Z,23.60
2023-08-16T13:45:16.253Z,23.70
2023-08-16T13:47:32.833Z,23.60
2023-08-16T13:49:59.609Z,23.60
2023-08-16T13:52:27.238Z,23.80
2023-08-16T13:54:54.278Z,24.10
2023-08-16T13:57:22.320Z,24.30
2023-08-16T13:59:49.084Z,24.30
2023-08-16T14:02:16.581Z,24.30
2023-08-16T14:04:43.310Z,24.30
2023-08-16T14:07:10.761Z,24.10
2023-08-16T14:09:37.536Z,24.00
2023-08-16T14:12:05.074Z,24.00
2023-08-16T14:14:31.840Z,23.80
2023-08-16T14:16:59.288Z,23.80
2023-08-16T14:19:26.654Z,23.80
2023-08-16T14:21:57.163Z,23.80
2023-08-16T14:24:25.579Z,23.80
2023-08-16T14:26:53.238Z,23.80
2023-08-16T14:29:19.900Z,23.80
2023-08-16T14:31:47.375Z,23.80
2023-08-16T14:34:14.355Z,23.80
2023-08-16T14:36:41.776Z,23.70
2023-08-16T14:39:09.554Z,23.60
2023-08-16T14:41:38.166Z,23.60
2023-08-16T14:44:05.082Z,23.50
2023-08-16T14:46:32.514Z,23.40
2023-08-16T14:48:59.562Z,23.40
2023-08-16T14:51:27.049Z,23.40
2023-08-16T14:53:53.733Z,23.40
2023-08-16T14:56:21.116Z,23.40
2023-08-16T14:58:47.784Z,23.50
2023-08-16T15:01:14.812Z,23.50
2023-08-16T15:03:42.261Z,23.50
2023-08-16T15:06:09.038Z,23.60
2023-08-16T15:08:38.162Z,23.60
2023-08-16T15:11:20.269Z,23.50
2023-08-16T15:13:47.731Z,23.50
2023-08-16T15:16:15.290Z,23.50
2023-08-16T15:18:42.982Z,23.40
2023-08-16T15:21:09.721Z,23.50
2023-08-16T15:23:38.576Z,23.50
2023-08-16T15:26:09.038Z,23.50
2023-08-16T15:28:37.973Z,23.40
2023-08-16T15:31:07.978Z,23.50
2023-08-16T15:33:35.629Z,23.40
2023-08-16T15:36:02.325Z,23.30
2023-08-16T15:38:45.271Z,23.20
2023-08-16T15:41:12.711Z,23.20
2023-08-16T15:43:40.615Z,23.20
2023-08-16T15:46:09.221Z,23.20
2023-08-16T15:48:37.651Z,23.20
2023-08-16T15:51:05.256Z,23.20
2023-08-16T15:53:33.129Z,23.20
2023-08-16T15:56:01.089Z,23.30
2023-08-16T15:58:29.129Z,23.40
2023-08-16T16:00:57.724Z,23.30
2023-08-16T16:03:26.530Z,23.30
2023-08-16T16:05:54.237Z,23.20
2023-08-16T16:08:22.183Z,23.10
2023-08-16T16:10:50.187Z,23.10
2023-08-16T16:13:17.974Z,23.00
2023-08-16T16:15:44.845Z,23.00
2023-08-16T16:18:12.304Z,22.90
2023-08-16T16:20:39.616Z,22.90
2023-08-16T16:23:07.201Z,22.80
2023-08-16T16:25:34.074Z,22.80
2023-08-16T16:28:01.627Z,22.80
2023-08-16T16:30:28.444Z,22.70
2023-08-16T16:32:55.502Z,22.70
2023-08-16T16:35:25.262Z,22.70
2023-08-16T16:37:52.611Z,22.70
2023-08-16T16:40:20.075Z,22.70
2023-08-16T16:42:47.570Z,22.60
2023-08-16T16:45:15.429Z,22.60
2023-08-16T16:47:42.370Z,22.60
2023-08-16T16:50:10.331Z,22.50
2023-08-16T16:52:37.611Z,22.50
2023-08-16T16:55:05.800Z,22.50
2023-08-16T16:57:33.877Z,22.40
2023-08-16T17:00:02.218Z,22.40
2023-08-16T17:02:28.991Z,22.40
2023-08-16T17:04:56.468Z,22.30
2023-08-16T17:07:23.487Z,22.30
2023-08-16T17:09:50.845Z,22.30
2023-08-16T17:12:17.586Z,22.20
2023-08-16T17:14:45.183Z,22.20
2023-08-16T17:17:11.874Z,22.10
2023-08-16T17:19:39.255Z,22.10
2023-08-16T17:22:06.168Z,22.10
2023-08-16T17:24:33.494Z,22.10
2023-08-16T17:27:00.234Z,22.00
2023-08-16T17:29:27.617Z,22.00
2023-08-16T17:31:54.312Z,22.00
2023-08-16T17:34:22.354Z,22.00
2023-08-16T17:36:49.056Z,22.00
2023-08-16T17:39:16.381Z,21.90
2023-08-16T17:41:43.347Z,21.90
2023-08-16T17:44:13.542Z,21.80
2023-08-16T17:46:40.351Z,21.80
2023-08-16T17:49:07.123Z,21.90
2023-08-16T17:51:34.461Z,21.80
2023-08-16T17:54:01.245Z,21.80
2023-08-16T17:56:28.647Z,21.70
2023-08-16T17:58:55.357Z,21.70
2023-08-16T18:01:22.775Z,21.70
2023-08-16T18:03:49.519Z,21.60
2023-08-16T18:06:16.841Z,21.60
2023-08-16T18:08:45.870Z,21.50
2023-08-16T18:11:13.818Z,21.50
2023-08-16T18:13:41.998Z,21.50
2023-08-16T18:16:09.362Z,21.50
2023-08-16T18:18:36.820Z,21.40
2023-08-16T18:21:03.675Z,21.40
2023-08-16T18:23:30.393Z,21.40
2023-08-16T18:25:57.676Z,21.30
2023-08-16T18:28:25.009Z,21.30
2023-08-16T18:30:53.050Z,21.20
2023-08-16T18:33:20.924Z,21.20
2023-08-16T18:35:47.948Z,21.20
2023-08-16T18:38:14.770Z,21.20
2023-08-16T18:40:41.934Z,21.10
2023-08-16T18:43:08.637Z,21.10
2023-08-16T18:45:35.755Z,21.10
2023-08-16T18:48:02.798Z,21.10
2023-08-16T18:50:31.970Z,21.00
2023-08-16T18:52:59.009Z,21.00
2023-08-16T18:55:26.460Z,21.00
2023-08-16T18:57:53.196Z,21.00
2023-08-16T19:00:20.427Z,21.00
2023-08-16T19:02:47.272Z,21.00
2023-08-16T19:05:14.914Z,21.00
2023-08-16T19:07:41.653Z,20.90
2023-08-16T19:10:09.370Z,20.90
2023-08-16T19:12:36.123Z,20.90
2023-08-16T19:15:03.239Z,20.90
2023-08-16T19:17:30.345Z,20.80
2023-08-16T19:19:57.081Z,20.80
2023-08-16T19:22:23.939Z,20.80
2023-08-16T19:24:50.739Z,20.70
2023-08-16T19:27:18.311Z,20.70
2023-08-16T19:29:45.085Z,20.70
2023-08-16T19:32:19.163Z,20.70
2023-08-16T19:34:46.044Z,20.70
2023-08-16T19:37:14.573Z,20.70
2023-08-16T19:39:41.251Z,20.60
2023-08-16T19:42:08.438Z,20.60
2023-08-16T19:44:35.146Z,20.60
2023-08-16T19:47:02.515Z,20.50
2023-08-16T19:49:29.274Z,20.60
2023-08-16T19:51:56.296Z,20.50
2023-08-16T19:54:23.003Z,20.50
2023-08-16T19:56:50.194Z,20.50
2023-08-16T19:59:16.861Z,20.40
2023-08-16T20:01:45.456Z,20.50
2023-08-16T20:04:12.439Z,20.40
2023-08-16T20:06:39.636Z,20.40
2023-08-16T20:09:07.437Z,20.40
2023-08-16T20:11:35.189Z,20.40
2023-08-16T20:14:03.225Z,20.30
2023-08-16T20:16:31.052Z,20.30
2023-08-16T20:18:57.813Z,20.30
2023-08-16T20:21:24.832Z,20.30
2023-08-16T20:23:51.504Z,20.30
2023-08-16T20:26:18.955Z,20.30
2023-08-16T20:28:47.179Z,20.30
2023-08-16T20:31:14.449Z,20.30
2023-08-16T20:33:42.339Z,20.30
2023-08-16T20:36:10.765Z,20.20
2023-08-16T20:38:41.531Z,20.20
2023-08-16T20:41:08.210Z,20.20
2023-08-16T20:43:35.522Z,20.20
2023-08-16T20:46:02.539Z,20.20
2023-08-16T20:48:29.908Z,20.20
2023-08-16T20:50:56.633Z,20.20
2023-08-16T20:53:24.027Z,20.20
2023-08-16T20:55:51.930Z,20.10
2023-08-16T20:58:19.326Z,20.10
2023-08-16T21:00:46.013Z,20.10
2023-08-16T21:03:13.367Z,20.10
2023-08-16T21:05:40.090Z,20.10
2023-08-16T21:08:07.120Z,20.10
2023-08-16T21:10:34.701Z,20.10
2023-08-16T21:13:01.393Z,20.00
2023-08-16T21:15:28.125Z,20.00
2023-08-16T21:17:55.490Z,20.00
2023-08-16T21:20:25.773Z,20.00
2023-08-16T21:22:53.499Z,20.00
2023-08-16T21:25:20.158Z,20.00
2023-08-16T21:27:47.528Z,20.00
2023-08-16T21:30:14.404Z,20.00
2023-08-16T21:32:41.777Z,20.00
2023-08-16T21:35:08.691Z,20.00
2023-08-16T21:37:36.010Z,19.90
2023-08-16T21:40:02.906Z,19.90
2023-08-16T21:42:29.920Z,19.90
2023-08-16T21:44:57.315Z,19.90
2023-08-16T21:47:24.882Z,19.90
2023-08-16T21:49:52.506Z,19.90
2023-08-16T21:52:19.241Z,19.90
2023-08-16T21:54:46.720Z,19.90
2023-08-16T21:57:13.458Z,19.90
2023-08-16T21:59:40.989Z,19.80
2023-08-16T22:02:08.478Z,19.80
2023-08-16T22:04:38.572Z,19.80
2023-08-16T22:07:05.835Z,19.70
2023-08-16T22:09:34.188Z,19.40
2023-08-16T22:12:02.097Z,19.20
2023-08-16T22:14:29.587Z,19.00
2023-08-16T22:16:56.538Z,18.80
2023-08-16T22:19:24.100Z,18.70
2023-08-16T22:21:50.800Z,18.60
2023-08-16T22:24:18.371Z,18.40
2023-08-16T22:26:45.248Z,18.30
2023-08-16T22:29:13.890Z,18.30
2023-08-16T22:31:40.614Z,18.20
2023-08-16T22:34:08.169Z,18.20
2023-08-16T22:36:35.334Z,18.20
2023-08-16T22:39:02.731Z,18.10
2023-08-16T22:41:29.386Z,18.10
2023-08-16T22:43:56.655Z,18.10
2023-08-16T22:46:23.374Z,18.10
2023-08-16T22:48:51.206Z,18.10
2023-08-16T22:51:17.949Z,18.10
2023-08-16T22:53:45.396Z,18.10
2023-08-16T22:56:12.207Z,18.10
2023-08-16T22:58:40.908Z,18.10
2023-08-16T23:01:07.780Z,18.10
2023-08-16T23:03:35.102Z,18.10
2023-08-16T23:06:02.391Z,18.10
2023-08-16T23:08:31.725Z,18.10
2023-08-16T23:10:59.063Z,18.10
2023-08-16T23:13:25.798Z,18.10
2023-08-16T23:15:53.162Z,18.10
2023-08-16T23:18:19.829Z,18.00
2023-08-16T23:20:47.267Z,18.00
2023-08-16T23:23:15.935Z,17.90
2023-08-16T23:25:43.483Z,18.00
2023-08-16T23:28:10.228Z,17.90
2023-08-16T23:30:37.566Z,17.90
2023-08-16T23:33:04.884Z,17.90
2023-08-16T23:35:32.367Z,17.90
2023-08-16T23:37:59.042Z,17.90
2023-08-16T23:40:27.361Z,17.90
2023-08-16T23:42:54.099Z,17.80
2023-08-16T23:45:21.529Z,17.70
2023-08-16T23:47:48.242Z,17.70
2023-08-16T23:50:15.624Z,17.70
2023-08-16T23:52:42.405Z,17.70
2023-08-16T23:55:10.559Z,17.70
2023-08-16T23:57:37.336Z,17.70
